Aviation Digital Data Service (ADDS)

Output produced by METARs form (1204 UTC 25 June 2019)
found at http://www.aviationweather.gov/metar/data/
 
YPAD 251200Z 09003KT CAVOK 07/03 Q1031
TAF YPAD 251113Z 2512/2618 04008KT CAVOK 
     FM260000 01014KT CAVOK 
     FM260400 34010KT CAVOK 
     FM260800 04008KT CAVOK
       
YABA 251200Z AUTO 36007KT 9999 // OVC055 14/10 Q1016
YMAY 251200Z AUTO 00000KT 9999 // NCD 03/01 Q1035
YBAS 251200Z AUTO 08003KT 9999 // NCD 08/M08 Q1026
TAF YBAS 251111Z 2512/2612 12008KT CAVOK 
     FM251600 30004KT CAVOK 
     FM260000 10010KT CAVOK
       
YAMB 251200Z AUTO 16004KT 9999 -SHRA SCT043 BKN048 BKN053 15/13 Q1027
TAF AMD YAMB 250913Z 2510/2606 16005KT 9999 -SHRA SCT035 BKN060 
     FM252300 14012KT 9999 -SHRA SCT040 BKN060 INTER 2510/2522 3000 SHRA BKN010
INTER 2603/2606 4000 SHRA BKN015
       
YARG 251200Z AUTO 10005KT 9999 // NCD 20/M09 Q1019
YMAV 251200Z AUTO 05003KT 9999 // NCD 05/04 Q1033
TAF YMAV 251104Z 2512/2612 01008KT CAVOK 
     PROB30 2512/2524 0500 FG BKN001
       
YAYE 251200Z AUTO 09005KT 9999 // NCD 14/M05 Q1025
YBNA 251104Z AUTO 13014KT 9999 // SCT021 SCT036 BKN047 17/14 Q1028
YBWX 251200Z AUTO 02006KT //// // ////// 19/11 Q1018
YBDV 251200Z AUTO 17008KT //// // ////// 12/M00 Q1026
YBBN 251200Z 20007KT 9999 -SHRA FEW018 BKN082 15/14 Q1027
TAF AMD YBBN 251118Z 2512/2618 19009KT 9999 -SHRA SCT025 BKN050 
     FM260200 15014KT 9999 -SHRA SCT030 BKN060 INTER 2512/2615 2000 SHRA BKN015
       
YBHI 251100Z AUTO 09008KT 9999 // NCD 10/03 Q1030
YBRM 251200Z AUTO 00000KT 9999 // NCD 18/16 Q1018
TAF YBRM 251100Z 2512/2612 11005KT CAVOK 
     FM260100 06012KT CAVOK 
     FM260800 33010KT CAVOK RMK 
     FM252000 MOD TURB BLW 3000FT TL260100 T 21 19 17 16 Q 1017 1017 1016 1016
       
YBUD 251200Z AUTO 17007KT 9999 -SHRA SCT055 BKN065 BKN105 15/14 Q1023
YBCS 251200Z AUTO 17012KT 9999 // NCD 21/16 Q1019 NOSIG
TAF YBCS 251051Z 2512/2612 15012KT 9999 SCT025 SCT040
       
YSCB 251200Z AUTO 17001KT 9999 // NCD 03/03 Q1035
TAF AMD YSCB 251116Z 2512/2612 14003KT 9999 FEW015 
     FM260100 08008KT 9999 SCT040 
     FM260900 15005KT 9999 FEW015 
     PROB30 2514/2523 0500 FG BKN001
       
YCAR 251200Z AUTO 03004KT 9999 // NCD 19/19 Q1019
YCAS 251200Z AUTO 19010KT //// // ////// 14/12 Q1029
YCDU 251100Z AUTO 06010KT 9999 // NCD 08/02 Q1027
YBCV 251200Z AUTO 17005KT 9999 // SCT066 11/05 Q1026
YCCY 251200Z AUTO 18008KT 9999 // NCD 15/M01 Q1021
YCBA 251200Z AUTO 14005KT 9999 // NCD 07/02 Q1031
YCBP 251200Z AUTO 05009KT 9999 // NCD 11/M06 Q1028
YBCG 251200Z AUTO 20008KT 9999 SHRA BKN029 BKN035 OVC048 15/15 Q1028
TAF YBCG 251120Z 2512/2612 14007KT 9999 -SHRA SCT025 SCT040 
     FM260200 17014KT 9999 -SHRA SCT030 BKN060 
     FM260600 14012KT 9999 -SHRA SCT030 BKN060 INTER 2512/2612 3000 SHRA BKN012
       
YCOM 251100Z AUTO 00000KT 9999 // NCD M03/M04 Q1035
YCBB 251200Z AUTO 20005KT 9999 // NCD 08/06 Q1031
YCNM 251100Z AUTO 15007KT //// // ////// 12/07 Q1030
YCIN 251200Z AUTO 14008KT 9999 // NCD 24/M14 Q1017
TAF YCIN 250707Z 2508/2520 13008KT CAVOK 
     FM250900 31005KT CAVOK 
     FM251400 13008KT CAVOK
       
YPDN 251200Z 17003KT CAVOK 19/13 Q1016
TAF YPDN 251123Z 2512/2618 16005KT 9999 FU NSC 
     FM260000 11012KT 9999 NSW NSC 
     FM260700 35007KT CAVOK 
     FM261200 VRB03KT CAVOK
       
YDBY 251100Z AUTO 00000KT 9999 // NCD 19/04 Q1017
YSDU 251200Z AUTO 16007KT 9999 // NCD 10/05 Q1032
TAF AMD YSDU 251101Z 2512/2606 14010KT 9999 FEW045 
     FM251500 13008KT 9999 FEW010 
     FM260100 10014KT 9999 SCT040
       
YEML 251100Z AUTO 15004KT 9999 // NCD 13/04 Q1023
YESP 251100Z AUTO 36008KT 9999 // NCD 12/08 Q1020
YFRT 251200Z AUTO 09007KT 9999 // NCD 08/01 Q1025
TAF YFRT 250617Z 2508/2520 05008KT CAVOK
       
YGEL 251130Z AUTO 35004KT 9999 // SCT056 16/12 Q1018 RF00.0/000.0
TAF YGEL 251019Z 2512/2606 34006KT 9999 SCT035 
     FM252300 34015G25KT 9999 BKN025 INTER 2600/2606 4000 SHRA BKN010 BKN020
       
YGLA 251130Z AUTO 18006KT 9999 // NCD 18/11 Q1023 RF00.0/000.0
TAF YGLA 251105Z 2512/2524 16007KT 9999 -SHRA FEW020 
     FM251800 16007KT 9999 -SHRA FEW025 SCT035 
     FM252300 14014KT 9999 -SHRA SCT030 INTER 2518/2524 12016G26KT 9000 -SHRA
SCT020 BKN030
       
YPGV 251200Z AUTO 16008KT 9999 // OVC030 22/17 Q1017
TAF YPGV 250701Z 2508/2520 15012KT 9999 SCT035 
     FM250900 15008KT 9999 SCT030
       
YGFN 251100Z AUTO 20007KT 9999 // NCD 14/11 Q1030
YGTH 251100Z AUTO 12007KT 9999 // NCD 07/06 Q1033
YGTE 251100Z AUTO 20003KT 9999 // NCD 15/13 Q1018
YBHM 251200Z AUTO 13016KT 9999 // SCT068 19/12 Q1021
TAF YBHM 251105Z 2512/2524 15018KT 9999 -SHRA SCT020 SCT030 
     FM251800 16018KT 9999 -SHRA SCT015 SCT030 
     TEMPO 2514/2524 9999 -SHRA BKN015
       
YMHB 251200Z 32006KT CAVOK 07/03 Q1032
TAF AMD YMHB 251106Z 2511/2612 33010KT CAVOK
       
YHID 251130Z AUTO 15009KT 9999 // NCD 24/20 Q1016
TAF YHID 251043Z 2512/2612 13012KT 9999 SCT025
       
YHUG 251100Z AUTO 13006KT 9999 // NCD 14/03 Q1022
YPKG 251200Z AUTO 02005KT 9999 // NCD 12/07 Q1021
TAF YPKG 251024Z 2512/2612 02007KT CAVOK 
     BECMG 2523/2601 31012KT 9999 SCT045 INTER 2606/2612 5000 SHRA 
     PROB30 INTER 2606/2612 3000 TSRA FEW060CB
       
YKRY 251203Z AUTO 13009KT 8000 -SHRA SCT008 BKN011 OVC021 13/13 Q1027
YPKU 251200Z AUTO 00000KT 9999 // NCD 14/05 Q1018
TAF YPKU 250705Z 2508/2520 14005KT CAVOK
       
YMLT 251200Z AUTO 33005KT 9999 // OVC025 06/05 Q1034
TAF AMD YMLT 251105Z 2511/2612 34005KT 9999 BKN020 
     FM251800 16005KT 9999 FEW020 
     FM260100 34010KT 9999 SCT020 
     PROB30 2518/2523 0500 FZFG
       
YPLM 251200Z AUTO 25004KT 9999 // NCD 21/19 Q1018
TAF YPLM 251100Z 2512/2612 24008KT CAVOK 
     FM260000 34008KT CAVOK 
     FM260600 32010KT 9999 SCT020
       
YLEC 251100Z AUTO 10004KT //// // ////// 11/M02 Q1029
YLIS 251100Z AUTO 19005KT 9999 // SCT029 SCT081 OVC105 14/13 Q1028
YLRE 251200Z AUTO 15005KT 9999 // NCD 11/M05 Q1023
YBMK 251100Z AUTO 21007KT 9999 // NCD 12/08 Q1022
YMEK 251200Z AUTO 28006KT 9999 -RA SCT066 SCT077 OVC100 21/12 Q1021
YMEN 251200Z AUTO 36005KT 9999 // NCD 08/05 Q1034
YMML 251200Z 36010KT CAVOK 08/04 Q1034
TAF YMML 251104Z 2512/2618 01012KT CAVOK
       
YMER 251200Z AUTO 22002KT 9999 // OVC052 07/07 Q1035
YMIA 251200Z AUTO 11005KT 9999 // NCD 10/05 Q1032
YMOR 251200Z AUTO 11013KT 9999 // NCD 14/06 Q1029
YMTG 251100Z AUTO 00000KT 9999 // NCD 04/03 Q1032
YBMA 251200Z AUTO 17006KT 9999 // NCD 15/M03 Q1022
TAF YBMA 251041Z 2512/2524 14008KT CAVOK
       
YMDG 251200Z AUTO 15007KT 9999 // NCD 11/08 Q1032
YNBR 251100Z AUTO 17009KT 9999 // NCD 13/06 Q1029
YNAR 251100Z AUTO 00000KT 9999 // NCD 06/06 Q1033
YNWN 251100Z AUTO 15004KT 9999 // SCT115 21/00 Q1021
YNTN 251100Z AUTO 19007KT 9999 // NCD 21/03 Q1018
YSNW 251100Z 24001KT 9999 MIFG BKN031 10/09 Q1034 NOSIG
YBOK 251100Z 11011KT 9999 SCT040 OVC185 14/10 Q1027 NOSIG
YOLD 251100Z AUTO 00000KT 9999 // NCD 08/M01 Q1029
TAF YOLD 250008Z 2502/2514 03010KT CAVOK 
     FM250800 08006KT CAVOK
       
YPBO 251100Z AUTO 00000KT 9999 // NCD 23/01 Q1020
YPEA 251200Z AUTO 01007KT 9999 // SCT065 16/10 Q1018
TAF YPEA 251015Z 2512/2606 35008KT CAVOK 
     FM251800 35008KT 9999 SCT030 
     FM260200 34015G30KT 9999 -SHRA BKN030 INTER 2602/2606 4000 SHRA BKN012
       
YPPH 251200Z 04007KT 9999 FEW032 BKN068 16/11 Q1017
TAF AMD YPPH 251047Z 2512/2618 34006KT CAVOK 
     FM260000 34015G30KT 9999 -SHRA BKN030 
     FM260600 30015G30KT 9999 -SHRA BKN020 INTER 2602/2608 4000 SHRA BKN012 
     TEMPO 2608/2612 3000 +SHRA BKN010 INTER 2612/2615 5000 SHRA SCT012 
     PROB30 INTER 2608/2612 2000 TSRA BKN008 FEW020CB
       
YPJT 251130Z AUTO 36005KT 9999 // OVC061 OVC069 17/12 Q1017
TAF YPJT 251018Z 2512/2606 35008KT 9999 SCT030 
     FM260200 34015G30KT 9999 -SHRA BKN030 INTER 2600/2606 4000 SHRA BKN012
       
YPPD 251200Z AUTO 02001KT 9999 // NCD 18/13 Q1018
TAF YPPD 251100Z 2512/2612 17005KT CAVOK 
     FM260000 07014KT CAVOK 
     FM260600 02014KT CAVOK
       
YBPN 251100Z AUTO 21006KT 9999 // NCD 12/09 Q1022
YSRI 251200Z AUTO 22005KT 9999 // OVC038 OVC048 14/11 Q1034
TAF AMD YSRI 251102Z 2512/2612 VRB03KT 9999 -SHRA SCT015 BKN030 
     FM260000 18010KT 9999 -SHRA SCT020 BKN040 
     BECMG 2608/2610 23005KT 9999 -SHRA SCT015 BKN035 INTER 2512/2518 4000 SHRA
BKN010 
     PROB30 2518/2522 0500 FG BKN001
       
YRMD 251100Z AUTO 14011KT 9999 // NCD 16/03 Q1021
YBRK 251200Z AUTO 15006KT 9999 // NCD 16/11 Q1023
TAF YBRK 251105Z 2512/2612 17004KT 9999 FEW020 
     FM260000 13014KT 9999 -SHRA SCT030 INTER 2601/2608 12016G26KT 9000 -SHRA
FEW020 BKN030
       
YSSY 251200Z 15012KT 9000 -SHRA FEW020 BKN033 16/11 Q1034
TAF YSSY 251102Z 2512/2618 15010KT 9999 -SHRA SCT025 INTER 2512/2524 4000 SHRA
SCT015 INTER 2608/2618 4000 SHRA SCT015
       
YSTW 251200Z AUTO 17009KT 9999 // NCD 09/06 Q1031
TAF YSTW 251100Z 2512/2606 14006KT 9999 FEW010 
     FM260100 12014KT 9999 SCT040
       
YTRE 251200Z AUTO 33005KT 9999 // SCT038 10/09 Q1031
TAF YTRE 250704Z 2508/2520 18006KT 9999 -SHRA FEW020 SCT040 INTER 2508/2520 4000
SHRA BKN015
       
YTEF 251200Z AUTO 14008KT 9999 // NCD 21/M11 Q1021
YTNK 251200Z AUTO 12009KT 9999 // NCD 17/M11 Q1022
TAF YTNK 250702Z 2508/2520 13012KT CAVOK
       
YPTN 251200Z AUTO 16005KT 9999 // NCD 12/M02 Q1018
TAF YPTN 251110Z 2512/2612 13005KT CAVOK 
     FM260000 11013KT CAVOK 
     FM261000 12005KT CAVOK
       
YBTL 251200Z AUTO 11007KT 9999 // NCD 19/15 Q1020
TAF YBTL 251100Z 2512/2612 14007KT 9999 FEW065 
     FM251600 18006KT 9999 FEW020 SCT060 
     FM260200 12010KT 9999 FEW035 SCT060 
     FM260500 09013KT 9999 FEW045 SCT065
       
YSWG 251200Z AUTO 12007KT 9999 // NCD 05/05 Q1034
YWGT 251200Z AUTO 21004KT 9999 // NCD 02/01 Q1034
TAF YWGT 250042Z 2502/2514 VRB04KT CAVOK 
     PROB30 2510/2514 0500 FG BKN002
       
YBWP 251200Z AUTO 09004KT 9999 // NCD 22/18 Q1016
YWHA 251200Z AUTO 06004KT 010V100 9999 // NCD 06/03 Q1030
YWLM 251200Z AUTO 31005KT 6000 // BKN001 BKN038 BKN044 12/12 Q1032
TAF YWLM 251101Z 2512/2612 23006KT 9999 -SHRA SCT015 BKN030 
     FM251800 27006KT 9999 -SHRA SCT015 BKN030 
     FM260100 16014KT 9999 -SHRA SCT020 BKN040 
     BECMG 2607/2609 VRB03KT 9999 -SHRA SCT015 BKN030 INTER 2512/2524 5000 SHRA
FEW010 BKN015 INTER 2608/2612 5000 SHRA FEW010 BKN015
       
YPWR 251130Z AUTO 09007KT 9999 // NCD 10/M03 Q1029 RF00.0/000.0
TAF YPWR 251013Z 2512/2606 08006KT CAVOK 
     FM251800 05008KT CAVOK 
     FM260000 02012KT CAVOK